createdAt,value
2018-12-13T04:17:14.758Z,12.10
2018-12-13T04:19:43.074Z,14.05
2018-12-13T04:22:11.625Z,13.20
2018-12-13T04:24:40.101Z,13.27
2018-12-13T04:27:08.667Z,12.13
2018-12-13T04:29:37.006Z,13.00
2018-12-13T04:32:05.307Z,13.10
2018-12-13T04:34:33.921Z,11.40
2018-12-13T04:37:02.611Z,13.60
2018-12-13T04:39:30.925Z,12.53
2018-12-13T04:41:59.606Z,14.13
2018-12-13T04:44:29.388Z,12.50
2018-12-13T04:46:57.999Z,12.55
2018-12-13T04:49:26.440Z,13.00
2018-12-13T04:51:55.296Z,13.80
2018-12-13T04:54:23.606Z,12.87
2018-12-13T04:56:52.024Z,12.97
2018-12-13T04:59:20.307Z,13.70
2018-12-13T05:01:48.803Z,12.27
2018-12-13T05:04:17.334Z,12.57
2018-12-13T05:06:45.873Z,11.97
2018-12-13T05:09:14.489Z,13.30
2018-12-13T05:11:42.976Z,13.80
2018-12-13T05:14:11.258Z,14.07
2018-12-13T05:16:40.070Z,14.47
2018-12-13T05:19:08.338Z,14.60
2018-12-13T05:21:36.889Z,15.20
2018-12-13T05:24:05.510Z,13.60
2018-12-13T05:26:33.809Z,16.53
2018-12-13T05:29:02.082Z,14.17
2018-12-13T05:31:31.089Z,14.38
2018-12-13T05:33:59.640Z,14.17
2018-12-13T05:36:28.253Z,14.57
2018-12-13T05:38:56.907Z,13.43
2018-12-13T05:41:25.185Z,15.03
2018-12-13T05:43:54.413Z,14.87
2018-12-13T05:46:23.423Z,14.40
2018-12-13T05:48:51.897Z,13.23
2018-12-13T05:51:20.450Z,16.53
2018-12-13T05:53:49.603Z,13.93
2018-12-13T05:56:17.901Z,14.23
2018-12-13T05:58:46.180Z,16.37
2018-12-13T06:01:15.182Z,14.33
2018-12-13T06:03:43.469Z,14.37
2018-12-13T06:06:11.995Z,14.63
2018-12-13T06:08:41.082Z,12.00
2018-12-13T06:11:09.627Z,15.70
2018-12-13T06:13:38.261Z,14.70
2018-12-13T06:16:07.329Z,14.93
2018-12-13T06:18:35.861Z,13.70
2018-12-13T06:21:04.822Z,15.00
2018-12-13T06:23:33.378Z,17.77
2018-12-13T06:26:01.923Z,15.78
2018-12-13T06:28:30.649Z,16.65
2018-12-13T06:30:59.177Z,16.67
2018-12-13T06:33:28.296Z,15.97
2018-12-13T06:35:57.138Z,17.53
2018-12-13T06:38:25.964Z,19.40
2018-12-13T06:40:54.986Z,16.20
2018-12-13T06:43:23.789Z,16.10
2018-12-13T06:45:52.353Z,18.00
2018-12-13T06:48:20.638Z,16.57
2018-12-13T06:50:49.288Z,16.60
2018-12-13T06:53:17.666Z,18.27
2018-12-13T06:55:46.807Z,17.10
2018-12-13T06:58:15.103Z,18.30
2018-12-13T07:00:44.021Z,18.87
2018-12-13T07:03:12.566Z,14.43
2018-12-13T07:05:40.841Z,17.60
2018-12-13T07:08:09.163Z,18.57
2018-12-13T07:10:37.832Z,17.50
2018-12-13T07:13:06.858Z,17.70
2018-12-13T07:15:35.437Z,17.55
2018-12-13T07:18:04.165Z,15.10
2018-12-13T07:20:32.752Z,14.53
2018-12-13T07:23:01.550Z,15.50
2018-12-13T07:25:30.102Z,15.18
2018-12-13T07:27:58.794Z,17.07
2018-12-13T07:30:27.075Z,15.63
2018-12-13T07:32:55.709Z,15.50
2018-12-13T07:35:24.106Z,15.63
2018-12-13T07:37:52.686Z,16.75
2018-12-13T07:40:21.626Z,15.23
2018-12-13T07:42:50.703Z,15.83
2018-12-13T07:45:19.349Z,14.90
2018-12-13T07:47:47.636Z,14.60
2018-12-13T07:50:16.177Z,12.40
2018-12-13T07:52:44.945Z,13.32
2018-12-13T07:55:13.741Z,13.60
2018-12-13T07:57:42.321Z,11.63
2018-12-13T08:00:11.876Z,14.30
2018-12-13T08:02:40.450Z,15.53
2018-12-13T08:05:09.491Z,14.23
2018-12-13T08:07:37.965Z,12.47
2018-12-13T08:10:07.641Z,13.20
2018-12-13T08:12:35.923Z,13.40
2018-12-13T08:15:05.558Z,13.67
2018-12-13T08:17:33.836Z,13.80
2018-12-13T08:20:02.610Z,12.80
2018-12-13T08:22:30.999Z,12.73
2018-12-13T08:24:59.669Z,13.47
2018-12-13T08:27:27.929Z,13.70
2018-12-13T08:29:56.603Z,14.83
2018-12-13T08:32:25.558Z,13.93
2018-12-13T08:34:53.911Z,13.60
2018-12-13T08:37:22.362Z,12.97
2018-12-13T08:39:50.755Z,13.77
2018-12-13T08:42:19.314Z,14.83
2018-12-13T08:44:48.214Z,13.93
2018-12-13T08:47:16.500Z,13.27
2018-12-13T08:49:44.909Z,12.10
2018-12-13T08:52:13.301Z,13.07
2018-12-13T08:54:41.733Z,13.63
2018-12-13T08:57:10.269Z,12.93
2018-12-13T08:59:38.572Z,13.33
2018-12-13T09:02:07.486Z,13.17
2018-12-13T09:04:35.856Z,13.23
2018-12-13T09:07:04.991Z,13.43
2018-12-13T09:09:33.549Z,13.43
2018-12-13T09:12:01.797Z,14.13
2018-12-13T09:14:30.438Z,13.60
2018-12-13T09:16:59.033Z,12.05
2018-12-13T09:19:27.482Z,11.97
2018-12-13T09:21:56.522Z,13.80
2018-12-13T09:24:25.077Z,14.70
2018-12-13T09:26:53.629Z,13.88
2018-12-13T09:29:21.993Z,15.03
2018-12-13T09:31:50.316Z,13.13
2018-12-13T09:34:18.886Z,14.50
2018-12-13T09:36:47.390Z,12.50
2018-12-13T09:39:15.681Z,12.33
2018-12-13T09:41:44.346Z,12.75
2018-12-13T09:44:17.080Z,14.80
2018-12-13T09:46:46.513Z,13.27
2018-12-13T09:49:15.502Z,12.60
2018-12-13T09:51:44.130Z,13.28
2018-12-13T09:54:13.191Z,12.50
2018-12-13T09:56:41.685Z,14.30
2018-12-13T09:59:10.371Z,11.67
2018-12-13T10:01:38.988Z,10.98
2018-12-13T10:04:07.737Z,12.55
2018-12-13T10:06:36.094Z,12.47
2018-12-13T10:09:07.547Z,12.10
2018-12-13T10:11:36.399Z,12.90
2018-12-13T10:15:32.043Z,11.03
2018-12-13T10:17:57.003Z,10.83
2018-12-13T10:20:25.979Z,11.63
2018-12-13T10:22:54.565Z,10.72
2018-12-13T10:25:23.649Z,10.40
2018-12-13T10:27:52.503Z,10.20
2018-12-13T10:30:21.229Z,10.43
2018-12-13T10:32:50.700Z,9.83
2018-12-13T10:35:19.148Z,10.10
2018-12-13T10:37:47.440Z,11.03
2018-12-13T10:40:15.934Z,10.75
2018-12-13T10:42:44.310Z,9.40
2018-12-13T10:45:13.249Z,10.87
2018-12-13T10:47:41.539Z,10.33
2018-12-13T10:50:10.578Z,10.13
2018-12-13T10:52:38.872Z,9.97
2018-12-13T10:55:08.264Z,10.60
2018-12-13T10:57:37.192Z,10.67
2018-12-13T11:00:09.265Z,11.30
2018-12-13T11:02:53.139Z,9.37
2018-12-13T11:05:22.062Z,9.50
2018-12-13T11:07:50.458Z,9.97
2018-12-13T11:10:25.260Z,9.87
2018-12-13T11:12:50.059Z,10.83
2018-12-13T11:15:18.638Z,9.40
2018-12-13T11:17:46.938Z,10.10
2018-12-13T11:20:15.514Z,10.63
2018-12-13T11:22:44.621Z,10.10
2018-12-13T11:25:27.251Z,10.93
2018-12-13T11:28:32.030Z,9.78
2018-12-13T11:31:00.480Z,9.33
2018-12-13T11:33:29.029Z,9.27
2018-12-13T11:35:57.577Z,10.77
2018-12-13T11:38:25.909Z,9.40
2018-12-13T11:40:54.767Z,9.48
2018-12-13T11:43:23.038Z,8.43
2018-12-13T11:45:51.946Z,8.28
2018-12-13T11:48:20.449Z,7.00
2018-12-13T11:50:49.007Z,8.65
2018-12-13T11:53:17.565Z,9.07
2018-12-13T11:55:46.266Z,9.23
2018-12-13T11:58:16.383Z,8.65
2018-12-13T12:00:44.863Z,9.07
2018-12-13T12:03:13.810Z,8.75
2018-12-13T12:05:42.360Z,10.18
2018-12-13T12:08:11.173Z,9.00
2018-12-13T12:10:39.867Z,9.00
2018-12-13T12:13:08.421Z,9.70
2018-12-13T12:15:36.706Z,9.53
2018-12-13T12:18:05.318Z,9.45
2018-12-13T12:20:34.308Z,10.80
2018-12-13T12:23:02.606Z,9.50
2018-12-13T12:25:31.561Z,8.80
2018-12-13T12:27:59.921Z,8.37
2018-12-13T12:30:28.508Z,7.90
2018-12-13T12:32:57.178Z,9.87
2018-12-13T12:35:25.449Z,9.60
2018-12-13T12:37:53.815Z,10.57
2018-12-13T12:40:22.105Z,10.90
2018-12-13T12:42:50.745Z,11.45
2018-12-13T12:45:19.154Z,10.43
2018-12-13T12:47:47.730Z,9.75
2018-12-13T12:50:16.046Z,9.27
2018-12-13T12:52:45.202Z,9.40
2018-12-13T12:55:14.069Z,9.63
2018-12-13T12:57:42.517Z,9.80
2018-12-13T13:00:11.694Z,11.43
2018-12-13T13:02:40.658Z,11.73
2018-12-13T13:05:10.710Z,12.10
2018-12-13T13:07:39.028Z,13.63
2018-12-13T13:10:08.184Z,13.10
2018-12-13T13:12:36.745Z,13.60
2018-12-13T13:15:06.299Z,12.97
2018-12-13T13:17:34.899Z,12.03
2018-12-13T13:20:05.069Z,13.50
2018-12-13T13:22:33.401Z,13.30
2018-12-13T13:25:01.835Z,12.63
2018-12-13T13:27:30.749Z,12.63
2018-12-13T13:29:59.342Z,12.85
2018-12-13T13:32:27.898Z,11.35
2018-12-13T13:34:56.174Z,13.97
2018-12-13T13:37:24.981Z,12.97
2018-12-13T13:39:53.537Z,12.33
2018-12-13T13:42:21.989Z,12.87
2018-12-13T13:44:52.282Z,13.10
2018-12-13T13:47:20.683Z,13.20
2018-12-13T13:49:48.951Z,13.03
2018-12-13T13:52:17.445Z,13.33
2018-12-13T13:55:28.009Z,12.87
2018-12-13T13:57:56.306Z,12.50
2018-12-13T14:00:24.876Z,12.13
2018-12-13T14:02:54.375Z,12.97
2018-12-13T14:05:22.808Z,14.00
2018-12-13T14:07:51.395Z,12.43
2018-12-13T14:10:20.094Z,12.37
2018-12-13T14:12:49.170Z,13.70
2018-12-13T14:15:17.513Z,12.67
2018-12-13T14:17:46.074Z,13.68
2018-12-13T14:20:14.532Z,13.37
2018-12-13T14:22:44.308Z,13.58
2018-12-13T14:25:13.721Z,13.58
2018-12-13T14:27:42.310Z,14.70
2018-12-13T14:30:11.036Z,14.33
2018-12-13T14:32:39.608Z,14.13
2018-12-13T14:35:08.296Z,15.27
2018-12-13T14:37:36.559Z,13.67
2018-12-13T14:40:05.770Z,13.30
2018-12-13T14:42:34.930Z,13.70
2018-12-13T14:45:03.978Z,14.50
2018-12-13T14:47:33.011Z,12.50
2018-12-13T14:50:01.324Z,14.07
2018-12-13T14:52:29.953Z,13.37
2018-12-13T14:54:58.397Z,14.87
2018-12-13T14:57:26.927Z,13.27
2018-12-13T14:59:55.615Z,14.20
2018-12-13T15:02:24.174Z,14.98
2018-12-13T15:04:53.474Z,15.60
2018-12-13T15:07:22.335Z,15.65
2018-12-13T15:09:51.289Z,14.10
2018-12-13T15:12:20.197Z,13.83
2018-12-13T15:14:48.845Z,13.35
2018-12-13T15:17:17.176Z,13.33
2018-12-13T15:24:47.237Z,12.87
2018-12-13T15:27:15.947Z,13.90
2018-12-13T15:29:44.288Z,14.03
2018-12-13T15:32:12.930Z,13.83
2018-12-13T15:34:41.922Z,14.73
2018-12-13T15:37:10.199Z,14.10
2018-12-13T15:39:38.535Z,13.17
2018-12-13T15:42:07.581Z,14.50
2018-12-13T15:44:35.925Z,14.30
2018-12-13T15:47:05.482Z,15.90
2018-12-13T15:49:34.294Z,15.03
2018-12-13T15:52:02.844Z,13.80
2018-12-13T15:54:31.724Z,15.00
2018-12-13T15:57:00.713Z,16.40
2018-12-13T15:59:29.306Z,16.97
2018-12-13T16:01:57.618Z,14.60
2018-12-13T16:04:26.190Z,15.18
2018-12-13T16:06:54.680Z,14.93
2018-12-13T16:09:23.308Z,15.80
2018-12-13T16:11:52.583Z,14.00
2018-12-13T16:14:20.864Z,16.13
2018-12-13T16:16:49.518Z,13.80
2018-12-13T16:19:17.846Z,16.87
2018-12-13T16:21:46.440Z,14.95
2018-12-13T16:24:15.051Z,14.93
2018-12-13T16:26:43.349Z,16.80
2018-12-13T16:29:11.661Z,13.67
2018-12-13T16:31:40.338Z,14.67
2018-12-13T16:34:09.342Z,15.33
2018-12-13T16:36:37.752Z,14.90
2018-12-13T16:39:08.322Z,15.63
2018-12-13T16:41:36.923Z,15.53
2018-12-13T16:44:05.539Z,14.63
2018-12-13T16:51:36.645Z,15.23
2018-12-13T16:54:05.247Z,14.53
2018-12-13T16:56:33.881Z,15.10
2018-12-13T16:59:02.838Z,14.10
2018-12-13T17:01:32.459Z,14.10
2018-12-13T17:04:01.073Z,14.27
2018-12-13T17:06:29.388Z,16.00
2018-12-13T17:08:57.965Z,14.55
2018-12-13T17:11:26.617Z,14.10
2018-12-13T17:13:55.358Z,15.43
2018-12-13T17:16:23.669Z,15.57
2018-12-13T17:18:51.962Z,16.57
2018-12-13T17:21:20.717Z,16.10
2018-12-13T17:23:49.524Z,17.40
2018-12-13T17:26:18.037Z,17.40
2018-12-13T17:28:46.633Z,17.95
2018-12-13T17:31:14.945Z,18.07
2018-12-13T17:33:43.577Z,18.37
2018-12-13T17:36:12.300Z,17.50
2018-12-13T17:38:40.580Z,17.33
2018-12-13T17:41:09.057Z,16.30
2018-12-13T17:43:37.538Z,14.60
2018-12-13T17:46:07.365Z,15.10
2018-12-13T17:48:36.106Z,17.73
2018-12-13T17:51:04.719Z,17.30
2018-12-13T17:53:33.300Z,17.75
2018-12-13T17:56:02.178Z,18.20
2018-12-13T17:58:30.735Z,17.23
2018-12-13T18:00:59.206Z,18.50
2018-12-13T18:03:27.615Z,16.63
2018-12-13T18:05:56.415Z,17.10
2018-12-13T18:08:24.966Z,16.57
2018-12-13T18:10:53.378Z,17.67
2018-12-13T18:13:21.779Z,15.50
2018-12-13T18:15:50.385Z,16.50
2018-12-13T18:18:19.019Z,17.17
2018-12-13T18:20:48.056Z,17.40
2018-12-13T18:23:16.665Z,16.90
2018-12-13T18:25:44.957Z,16.03
2018-12-13T18:28:13.270Z,15.33
2018-12-13T18:30:41.896Z,15.70
2018-12-13T18:33:10.650Z,15.00
2018-12-13T18:35:39.235Z,15.65
2018-12-13T18:38:07.504Z,16.37
2018-12-13T18:40:36.513Z,16.30
2018-12-13T18:43:04.823Z,15.90
2018-12-13T18:45:37.119Z,16.30
2018-12-13T18:48:06.477Z,17.10
2018-12-13T18:50:35.072Z,16.00
2018-12-13T18:53:04.252Z,16.50
2018-12-13T18:55:32.815Z,16.20
2018-12-13T18:58:01.127Z,15.93
2018-12-13T19:00:29.461Z,16.07
2018-12-13T19:02:58.039Z,15.83
2018-12-13T19:05:26.618Z,16.90
2018-12-13T19:07:55.031Z,15.30
2018-12-13T19:10:23.551Z,15.97
2018-12-13T19:12:52.193Z,16.70
2018-12-13T19:15:21.194Z,16.10
2018-12-13T19:17:49.676Z,17.10
2018-12-13T19:20:18.079Z,16.70
2018-12-13T19:22:46.647Z,15.98
2018-12-13T19:25:15.246Z,17.45
2018-12-13T19:27:44.550Z,16.07
2018-12-13T19:30:12.895Z,16.00
2018-12-13T19:32:41.507Z,17.50
2018-12-13T19:35:10.251Z,16.87
2018-12-13T19:37:38.886Z,16.23
2018-12-13T19:40:08.247Z,16.00
2018-12-13T19:42:36.837Z,17.65
2018-12-13T19:45:06.158Z,18.00
2018-12-13T19:47:34.787Z,17.20
2018-12-13T19:50:03.494Z,16.90
2018-12-13T19:52:32.182Z,17.63
2018-12-13T19:55:00.991Z,16.83
2018-12-13T19:57:29.610Z,16.77
2018-12-13T19:59:57.883Z,17.70
2018-12-13T20:02:26.716Z,18.13
2018-12-13T20:04:55.043Z,17.63
2018-12-13T20:07:23.474Z,17.37
2018-12-13T20:09:52.233Z,19.03
2018-12-13T20:12:20.776Z,17.00
2018-12-13T20:14:49.422Z,18.00
2018-12-13T20:17:18.175Z,17.37
2018-12-13T20:19:46.687Z,18.27
2018-12-13T20:22:16.333Z,18.30
2018-12-13T20:24:44.919Z,19.67
2018-12-13T20:27:13.467Z,17.60
2018-12-13T20:29:42.652Z,19.10
2018-12-13T20:32:11.683Z,18.15
2018-12-13T20:34:41.857Z,18.83
2018-12-13T20:37:10.822Z,18.20
2018-12-13T20:39:39.413Z,17.57
2018-12-13T20:42:07.994Z,18.60
2018-12-13T20:44:36.282Z,17.60
2018-12-13T20:47:05.394Z,18.13
2018-12-13T20:49:34.060Z,17.70
2018-12-13T20:52:02.629Z,18.23
2018-12-13T20:54:31.153Z,18.40
2018-12-13T20:56:59.925Z,19.60
2018-12-13T20:59:28.716Z,18.30
2018-12-13T21:01:57.328Z,18.80
2018-12-13T21:04:26.098Z,20.37
2018-12-13T21:07:00.010Z,18.48
2018-12-13T21:09:28.346Z,19.40
2018-12-13T21:11:56.714Z,18.40
2018-12-13T21:14:25.093Z,20.10
2018-12-13T21:16:59.824Z,19.65
2018-12-13T21:19:24.005Z,18.43
2018-12-13T21:21:52.597Z,18.35
2018-12-13T21:24:21.723Z,17.93
2018-12-13T21:26:50.287Z,19.60
2018-12-13T21:29:18.614Z,18.17
2018-12-13T21:31:47.010Z,18.70
2018-12-13T21:34:15.598Z,17.82
2018-12-13T21:36:43.973Z,20.03
2018-12-13T21:39:12.709Z,18.67
2018-12-13T21:41:41.278Z,19.23
2018-12-13T21:44:10.360Z,19.25
2018-12-13T21:46:39.530Z,19.50
2018-12-13T21:49:08.314Z,16.55
2018-12-13T21:51:37.049Z,17.07
2018-12-13T21:54:05.329Z,15.50
2018-12-13T21:56:34.001Z,14.85
2018-12-13T21:59:03.787Z,14.47
2018-12-13T22:01:32.815Z,13.47
2018-12-13T22:04:01.586Z,14.85
2018-12-13T22:06:30.426Z,14.20
2018-12-13T22:08:58.978Z,14.97
2018-12-13T22:11:27.984Z,14.28
2018-12-13T22:13:56.913Z,16.37
2018-12-13T22:16:25.218Z,15.83
2018-12-13T22:18:53.839Z,15.43
2018-12-13T22:21:22.133Z,16.70
2018-12-13T22:23:50.705Z,15.63
2018-12-13T22:26:19.319Z,15.45
2018-12-13T22:28:47.843Z,16.50
2018-12-13T22:31:16.331Z,14.17
2018-12-13T22:33:44.852Z,15.80
2018-12-13T22:36:13.450Z,15.28
2018-12-13T22:38:41.923Z,14.47
2018-12-13T22:41:10.619Z,16.03
2018-12-13T22:43:39.200Z,14.30
2018-12-13T22:46:07.777Z,14.87
2018-12-13T22:48:36.549Z,15.90
2018-12-13T22:51:05.477Z,15.78
2018-12-13T22:53:33.770Z,16.10
2018-12-13T22:56:02.344Z,15.13
2018-12-13T22:58:30.741Z,12.83
